Conejos, Valles Caldera, New Mexico Weather observations

Data are for 10 minute period ending at time listed.
 Day   Time   Solar   Ave.   Ave.  Ave.  Vector  Max.   Baro.   Total    
  of    of     Rad.   Air    Rel.  Wind   Wind   Wind  Press.  Precip.   
Year   Day            Temp.  Hum.  Speed  Dir.   Gust                    
2016   (MST)  Kw/m2    F      %     mph   deg.    mph    mb.     in.     
-------------------------------------------------------------------------
 341    2:30   0.00   27.5    38    0.5    48     1.8   99999.0    0.00 
 341    2:40   0.00   27.3    38    0.2    55     1.2   99999.0    0.00 
 341    2:50   0.00   27.2    36    0.0     0     0.0   99999.0    0.00 
 341    3:00   0.00   27.3    36    0.0     0     0.0   99999.0    0.00 
 341    3:10   0.00   27.0    37    0.2    14     1.8   99999.0    0.00 
 341    3:20   0.00   26.7    41    0.4    23     3.0   99999.0    0.00 
 341    3:30   0.00   26.6    43    1.5   345     3.6   99999.0    0.00 
 341    3:40   0.00   27.4    42    1.4     2     3.6   99999.0    0.00 
 341    3:50   0.00   26.9    45    0.9   335     3.0   99999.0    0.00 
 341    4:00   0.00   26.9    45    0.6     5     2.4   99999.0    0.00 
 341    4:10   0.00   26.8    43    0.2    16     1.8   99999.0    0.00 
 341    4:20   0.00   26.5    45    0.2   281     1.8   99999.0    0.00 
 341    4:30   0.00   26.2    43    0.0     0     0.0   99999.0    0.00 
 341    4:40   0.00   26.0    42    0.0     0     0.0   99999.0    0.00 
 341    4:50   0.00   25.7    44    0.0     0     0.0   99999.0    0.00 
 341    5:00   0.00   25.8    42    0.1   204     1.2   99999.0    0.00 
 341    5:10   0.00   26.1    41    0.0     0     0.0   99999.0    0.00 
 341    5:20   0.00   26.2    41    0.0     0     0.0   99999.0    0.00 
 341    5:30   0.00   26.9    38    0.0     0     0.0   99999.0    0.00 
 341    5:40   0.00   26.6    40    0.0   209     1.2   99999.0    0.00 
 341    5:50   0.00   26.1    43    0.1   164     1.8   99999.0    0.00 
 341    6:00   0.00   24.8    46    0.6   164     2.4   99999.0    0.00 
 341    6:10   0.00   23.9    48    0.1   184     1.2   99999.0    0.00 
 341    6:20   0.00   24.3    48    0.2   175     1.2   99999.0    0.00 
 341    6:30   0.00   23.8    51    0.6   173     1.8   99999.0    0.00 
 341    6:40   0.00   23.7    52    1.0   160     2.4   99999.0    0.00 
 341    6:50   0.00   23.2    54    1.5   156     3.0   99999.0    0.00 
 341    7:00   0.00   23.9    53    0.9   152     3.0   99999.0    0.00 
 341    7:10   0.00   24.4    55    0.0   137     1.2   99999.0    0.00 
 341    7:20   0.00   24.6    54    0.5   151     1.8   99999.0    0.00 
 341    7:30   0.01   24.7    57    0.3   175     1.8   99999.0    0.00 
 341    7:40   0.01   25.2    56    0.0   176     1.2   99999.0    0.00 
 341    7:50   0.01   25.5    56    0.4   160     3.6   99999.0    0.00 
 341    8:00   0.02   25.0    61    1.7   142     2.4   99999.0    0.00 
 341    8:10   0.03   25.1    60    1.8   139     4.8   99999.0    0.00 
 341    8:20   0.03   26.2    56    2.4   156     6.6   99999.0    0.00 
 341    8:30   0.05   26.9    56    2.1   140     6.0   99999.0    0.00 
 341    8:40   0.05   27.0    55    2.4   139     4.8   99999.0    0.00 
 341    8:50   0.05   27.0    55    1.8   138     4.2   99999.0    0.00 
 341    9:00   0.06   27.3    55    1.5   135     4.2   99999.0    0.00 
 341    9:10   0.07   27.5    54    2.1   140     5.4   99999.0    0.00 
 341    9:20   0.08   27.7    56    2.1   142     5.4   99999.0    0.00 
 341    9:30   0.07   28.0    54    2.5   182     5.4   99999.0    0.00 
 341    9:40   0.07   28.1    54    2.2   196     4.8   99999.0    0.00 
 341    9:50   0.10   28.3    54    3.4   153     7.8   99999.0    0.00 
 341   10:00   0.09   28.5    53    2.2   170     7.2   99999.0    0.00 
 341   10:10   0.11   28.6    52    2.8   168     7.8   99999.0    0.00 
 341   10:20   0.12   28.7    53    4.0   165     7.8   99999.0    0.00 
 341   10:30   0.07   28.3    53    4.5   166    10.2   99999.0    0.00 
 341   10:40   0.10   28.3    54    3.0   163     7.2   99999.0    0.00 
 341   10:50   0.10   28.5    54    3.2   162     6.6   99999.0    0.00 
 341   11:00   0.12   28.6    53    2.7   170     6.0   99999.0    0.00 
 341   11:10   0.09   28.6    53    2.9   163     6.6   99999.0    0.00 
 341   11:20   0.09   28.7    53    2.3   158     4.2   99999.0    0.00 
 341   11:30   0.10   28.6    52    2.1   170     4.8   99999.0    0.00 
 341   11:40   0.12   29.0    52    2.4   162     4.2   99999.0    0.00 
 341   11:50   0.13   29.2    52    2.2   141     3.6   99999.0    0.00 
 341   12:00   0.12   29.0    52    2.5   136     5.4   99999.0    0.00 
 341   12:10   0.12   28.2    52    2.5   135     5.4   99999.0    0.00 
 341   12:20   0.09   27.7    54    3.2   162     4.8   99999.0    0.00 
 341   12:30   0.10   27.4    53    3.2   158     7.8   99999.0    0.00 
 341   12:40   0.15   27.9    52    3.2   144     7.2   99999.0    0.00 
 341   12:50   0.14   28.1    51    3.9   155     7.2   99999.0    0.00 
 341   13:00   0.13   27.9    51    2.8   150     7.2   99999.0    0.00 
 341   13:10   0.13   28.1    51    1.8   136     4.2   99999.0    0.00 
 341   13:20   0.10   27.9    51    2.5   159     5.4   99999.0    0.00 
 341   13:30   0.10   28.1    51    2.4   134     4.2   99999.0    0.00 
 341   13:40   0.12   28.2    52    2.3   144     5.4   99999.0    0.00 
 341   13:50   0.11   28.8    50    1.8   136     3.0   99999.0    0.00 
 341   14:00   0.10   28.5    51    1.6   164     3.0   99999.0    0.00 
 341   14:10   0.10   28.7    51    1.4   132     3.0   99999.0    0.00 
 341   14:20   0.09   28.9    50    1.5   154     4.2   99999.0    0.00 
 341   14:30   0.08   28.9    50    1.7   147     4.8   99999.0    0.00 
 341   14:40   0.06   28.8    51    0.8   258     3.0   99999.0    0.00 
 341   14:50   0.04   28.8    50    0.7   150     3.0   99999.0    0.00 
 341   15:00   0.05   28.8    51    2.6   170     4.8   99999.0    0.00 
 341   15:10   0.05   28.8    50    2.1   183     4.2   99999.0    0.00 
 341   15:20   0.04   28.9    50    0.4   203     2.4   99999.0    0.00 
 341   15:30   0.05   28.9    51    0.8   259     2.4   99999.0    0.00 
 341   15:40   0.04   29.2    51    0.8     6     2.4   99999.0    0.00 
 341   15:50   0.03   29.4    53    0.2   112     1.8   99999.0    0.00 
 341   16:00   0.04   29.3    50    0.9   176     3.0   99999.0    0.00 
 341   16:10   0.03   29.5    51    1.3   182     3.6   99999.0    0.00 
 341   16:20   0.02   29.4    53    1.8   139     4.2   99999.0    0.00 
 341   16:30   0.01   28.8    54    1.5   143     3.6   99999.0    0.00 
 341   16:40   0.01   28.2    57    1.6   141     3.0   99999.0    0.00 
 341   16:50   0.01   27.6    57    0.8   158     3.6   99999.0    0.00 
 341   17:00   0.00   27.4    58    0.2   152     1.8   99999.0    0.00 
 341   17:10   0.00   26.9    64    0.9   172     3.0   99999.0    0.00 
 341   17:20   0.00   26.7    59    1.0   232     2.4   99999.0    0.00 
 341   17:30   0.00   27.0    57    1.2   148     4.2   99999.0    0.00 
 341   17:40   0.00   26.7    60    1.2   116     3.0   99999.0    0.00 
 341   17:50   0.00   27.0    56    1.0   137     3.0   99999.0    0.00 
 341   18:00   0.00   25.8    62    0.8   176     2.4   99999.0    0.00 
 341   18:10   0.00   24.9    61    0.8   182     1.8   99999.0    0.00 
 341   18:20   0.00   24.3    60    0.5   169     1.8   99999.0    0.00 
 341   18:30   0.00   24.1    62    1.6   148     3.0   99999.0    0.00 
 341   18:40   0.00   23.9    64    0.9   138     2.4   99999.0    0.00 
 341   18:50   0.00   23.9    64    0.5   129     1.8   99999.0    0.00 
 341   19:00   0.00   24.1    62    0.4   146     1.8   99999.0    0.00 
 341   19:10   0.00   24.8    63    0.3    97     1.8   99999.0    0.00 
 341   19:20   0.00   25.5    61    0.3   124     1.8   99999.0    0.00 
 341   19:30   0.00   26.8    58    1.5   138     4.8   99999.0    0.00 
 341   19:40   0.00   27.5    56    1.4   127     4.8   99999.0    0.00 
 341   19:50   0.00   28.0    56    1.6   131     6.0   99999.0    0.00 
 341   20:00   0.00   28.6    55    2.2   154     6.6   99999.0    0.00 
 341   20:10   0.00   28.7    56    2.4   164     6.0   99999.0    0.00 
 341   20:20   0.00   28.7    55    2.4   187     7.5   99999.0    0.00 
 341   20:30   0.00   28.4    55    2.1   179     6.0   99999.0    0.00 
 341   20:40   0.00   28.1    56    2.1   174     5.4   99999.0    0.00 
 341   20:50   0.00   28.1    57    2.8   176     7.2   99999.0    0.00 
 341   21:00   0.00   28.3    58    2.3   164     6.0   99999.0    0.00 
 341   21:10   0.00   28.2    59    2.8   153     6.6   99999.0    0.00 
 341   21:20   0.00   28.4    59    3.3   165     7.2   99999.0    0.00 
 341   21:30   0.00   28.4    61    1.8   137     3.6   99999.0    0.00 
 341   21:40   0.00   28.6    60    2.7   108     5.4   99999.0    0.00 
 341   21:50   0.00   28.5    61    2.3   154     5.4   99999.0    0.00 
 341   22:00   0.00   28.7    61    2.9   165     6.6   99999.0    0.00 
 341   22:10   0.00   28.6    62    2.4    99     6.6   99999.0    0.00 
 341   22:20   0.00   28.7    62    2.5   165     6.0   99999.0    0.00 
 341   22:30   0.00   28.7    62    2.4   119     6.0   99999.0    0.00 
 341   22:40   0.00   28.4    62    2.7   168     7.8   99999.0    0.00 
 341   22:50   0.00   28.3    63    2.6   148     7.8   99999.0    0.00 
 341   23:00   0.00   28.1    64    2.6   100     5.4   99999.0    0.00 
 341   23:10   0.00   27.8    65    2.7   114     5.4   99999.0    0.00 
 341   23:20   0.00   27.7    66    2.3   108     5.4   99999.0    0.00 
 341   23:30   0.00   27.6    67    2.8   167     9.0   99999.0    0.00 
 341   23:40   0.00   27.6    67    3.2   156     6.6   99999.0    0.00 
 341   23:50   0.00   27.5    67    2.4   166     4.8   99999.0    0.00 
 342    0:00   0.00   27.5    67    2.9   165     8.4   99999.0    0.00 
 342    0:10   0.00   27.5    68    3.0   146     7.8   99999.0    0.00 
 342    0:20   0.00   27.4    69    3.1   148     6.6   99999.0    0.00 
 342    0:30   0.00   27.5    69    2.5   161     6.6   99999.0    0.00 
 342    0:40   0.00   27.2    70    2.9   125     7.8   99999.0    0.00 
 342    0:50   0.00   27.3    70    2.9   129     4.8   99999.0    0.00 
 342    1:00   0.00   27.2    70    2.9   157     6.6   99999.0    0.00 
 342    1:10   0.00   27.1    71    2.2   104     4.2   99999.0    0.00 
 342    1:20   0.00   27.0    71    1.9    87     4.2   99999.0    0.00 
 342    1:30   0.00   27.0    71    2.3    69     6.0   99999.0    0.00 
 342    1:40   0.00   26.8    72    2.7    74     9.6   99999.0    0.00 
 342    1:50   0.00   26.7    72    2.6   146     7.2   99999.0    0.00 
 342    2:00   0.00   26.4    73    2.0    80     4.2   99999.0    0.00 
 342    2:10   0.00   26.1    73    2.4   144     6.0   99999.0    0.00 
 342    2:20   0.00   25.9    73    2.4    96     5.4   99999.0    0.00 

Return to Conejos, Valles Caldera graphs page.


Western Regional Climate Center,wrcc@dri.edu